TimeMDT,TemperatureF,Dew PointF,Humidity,Sea Level PressureIn,VisibilityMPH,Wind Direction,Wind SpeedMPH,Gust SpeedMPH,PrecipitationIn,Events,Conditions,WindDirDegrees,DateUTC
12:52 AM,71.1,50.0,47,29.91,10.0,NNW,4.6,-,N/A,,Clear,340,2013-08-20 06:52:00
1:52 AM,68.0,50.0,52,29.91,10.0,Calm,Calm,-,N/A,,Clear,0,2013-08-20 07:52:00
2:52 AM,66.9,48.9,52,29.91,10.0,SW,4.6,-,N/A,,Clear,230,2013-08-20 08:52:00
3:52 AM,64.9,51.1,61,29.90,10.0,Calm,Calm,-,N/A,,Clear,0,2013-08-20 09:52:00
4:52 AM,66.0,51.1,59,29.89,10.0,SW,9.2,-,N/A,,Clear,230,2013-08-20 10:52:00
5:52 AM,68.0,51.1,55,29.88,10.0,SW,9.2,-,N/A,,Clear,220,2013-08-20 11:52:00
6:52 AM,66.0,52.0,60,29.89,10.0,Calm,Calm,-,N/A,,Overcast,0,2013-08-20 12:52:00
7:52 AM,68.0,52.0,56,29.93,10.0,ESE,4.6,-,N/A,,Mostly Cloudy,110,2013-08-20 13:52:00
8:52 AM,70.0,53.1,55,29.94,10.0,SSE,12.7,-,N/A,,Scattered Clouds,160,2013-08-20 14:52:00
9:52 AM,79.0,48.9,35,29.92,10.0,South,9.2,-,N/A,,Clear,190,2013-08-20 15:52:00
10:52 AM,82.9,45.0,26,29.94,10.0,SSW,13.8,-,N/A,,Clear,210,2013-08-20 16:52:00
11:52 AM,86.0,44.1,23,29.93,10.0,SSW,8.1,18.4,N/A,,Clear,200,2013-08-20 17:52:00
12:52 PM,89.1,41.0,19,29.90,10.0,South,9.2,18.4,N/A,,Clear,190,2013-08-20 18:52:00
1:52 PM,90.0,39.0,17,29.88,10.0,South,11.5,19.6,N/A,,Clear,170,2013-08-20 19:52:00
2:52 PM,91.9,36.0,14,29.85,10.0,West,9.2,17.3,N/A,,Clear,270,2013-08-20 20:52:00
3:52 PM,91.9,35.1,13,29.83,10.0,SSW,10.4,23.0,N/A,,Partly Cloudy,200,2013-08-20 21:52:00
4:52 PM,86.0,39.0,19,29.83,10.0,West,26.5,33.4,N/A,,Clear,260,2013-08-20 22:52:00
5:52 PM,88.0,37.0,16,29.83,10.0,West,10.4,-,N/A,,Clear,260,2013-08-20 23:52:00
6:52 PM,84.9,43.0,23,29.85,10.0,North,16.1,-,N/A,,Mostly Cloudy,360,2013-08-21 00:52:00
7:52 PM,80.1,46.0,30,29.88,10.0,North,19.6,26.5,N/A,,Overcast,10,2013-08-21 01:52:00
8:52 PM,77.0,46.9,34,29.92,10.0,North,10.4,-,N/A,,Mostly Cloudy,350,2013-08-21 02:52:00
9:52 PM,75.9,48.9,38,29.94,10.0,North,9.2,-,0.00,Rain,Light Rain,10,2013-08-21 03:52:00
10:52 PM,73.0,51.1,46,29.94,10.0,East,3.5,-,0.00,,Mostly Cloudy,100,2013-08-21 04:52:00
11:52 PM,70.0,51.1,51,29.91,10.0,Calm,Calm,-,N/A,,Clear,0,2013-08-21 05:52:00